Time;durP1;ratioP1;P1;durP2;ratioP2;P2;SDS_P1;SDS_P2;PMS_P1;PMS_P2;Temp;Humidity;BMP_temperature;BMP_pressure;BME280_temperature;BME280_humidity;BME280_pressure;Samples;Min_cycle;Max_cycle;Signal;HPM_P1;HPM_P2
2023/03/26 00:01:15;;;;;;;18.42;0.80;;;8.10;99.90;;;;;;5044184;28;20024;-86
2023/03/26 00:03:43;;;;;;;18.27;0.83;;;8.10;99.90;;;;;;5059204;28;20488;-86
2023/03/26 00:06:15;;;;;;;12.73;0.85;;;8.10;99.90;;;;;;5045566;28;20021;-85
2023/03/26 00:08:43;;;;;;;10.48;0.63;;;8.10;99.90;;;;;;5045103;28;20037;-87
2023/03/26 00:11:11;;;;;;;14.57;0.88;;;8.10;99.90;;;;;;5041877;28;20020;-85
2023/03/26 00:13:37;;;;;;;12.85;1.05;;;8.10;99.90;;;;;;5029252;28;20184;-86
2023/03/26 00:16:03;;;;;;;9.77;0.68;;;8.20;99.90;;;;;;5038135;28;20060;-86
2023/03/26 00:18:33;;;;;;;10.13;1.05;;;8.20;99.90;;;;;;5045687;28;20025;-86
2023/03/26 00:21:04;;;;;;;9.45;0.80;;;8.20;99.90;;;;;;5062584;28;20017;-86
2023/03/26 00:23:33;;;;;;;9.93;0.65;;;8.20;99.90;;;;;;5041504;28;20043;-86
2023/03/26 00:26:00;;;;;;;10.65;0.90;;;8.20;99.90;;;;;;5066130;28;20028;-86
2023/03/26 00:28:26;;;;;;;18.45;1.20;;;8.30;99.90;;;;;;5041178;28;20135;-86
2023/03/26 00:31:00;;;;;;;17.77;0.85;;;8.30;99.90;;;;;;5058912;28;20171;-86
2023/03/26 00:33:26;;;;;;;14.07;0.82;;;8.30;99.90;;;;;;5057643;28;20559;-87
2023/03/26 00:35:54;;;;;;;4.82;0.60;;;8.30;99.90;;;;;;5044854;28;20022;-87
2023/03/26 00:38:24;;;;;;;19.02;1.65;;;8.30;99.90;;;;;;5039345;28;20029;-86
2023/03/26 00:40:50;;;;;;;;;;;8.30;99.90;;;;;;5049158;28;20035;-87
2023/03/26 00:43:17;;;;;;;20.83;2.42;;;8.30;99.90;;;;;;5050027;28;20356;-88
2023/03/26 00:45:48;;;;;;;19.48;2.03;;;8.30;99.90;;;;;;5041052;28;20029;-87
2023/03/26 00:48:15;;;;;;;13.75;1.15;;;8.30;99.90;;;;;;5036316;28;20078;-87
2023/03/26 00:50:44;;;;;;;18.00;1.50;;;8.30;99.90;;;;;;5037630;28;20535;-86
2023/03/26 00:53:13;;;;;;;22.77;2.25;;;8.20;99.90;;;;;;5036833;28;20539;-87
2023/03/26 00:55:41;;;;;;;13.27;0.82;;;8.20;99.90;;;;;;5057159;28;20030;-87
2023/03/26 00:58:09;;;;;;;17.20;2.78;;;8.20;99.90;;;;;;5056541;28;20090;-87
2023/03/26 01:00:38;;;;;;;13.63;2.10;;;8.20;99.90;;;;;;5063212;28;20025;-87
2023/03/26 01:03:05;;;;;;;13.35;1.92;;;8.20;99.90;;;;;;5045232;28;20528;-88
2023/03/26 01:05:34;;;;;;;18.33;1.50;;;8.10;99.90;;;;;;5057837;28;20029;-86
2023/03/26 01:08:21;;;;;;;6.68;0.70;;;8.10;99.90;;;;;;5033783;28;20033;-87
2023/03/26 01:10:52;;;;;;;9.38;0.90;;;8.10;99.90;;;;;;5051731;28;20032;-89
2023/03/26 01:13:23;;;;;;;11.25;0.90;;;8.10;99.90;;;;;;5051315;28;20417;-87
2023/03/26 01:15:49;;;;;;;6.38;0.80;;;8.10;99.90;;;;;;5059545;28;20017;-86
2023/03/26 01:18:25;;;;;;;10.25;0.70;;;8.00;99.90;;;;;;5029852;28;22224;-87
2023/03/26 01:21:03;;;;;;;8.85;1.25;;;8.10;99.90;;;;;;5056005;28;20021;-87
2023/03/26 01:23:42;;;;;;;8.20;0.70;;;8.10;99.90;;;;;;5055549;28;20024;-86
2023/03/26 01:26:39;;;;;;;5.22;0.70;;;8.10;99.90;;;;;;5045716;28;20047;-87
2023/03/26 01:29:09;;;;;;;15.02;2.08;;;8.10;99.90;;;;;;5017413;28;20152;-87
2023/03/26 01:31:42;;;;;;;;;;;8.00;99.90;;;;;;5029562;28;20115;-87
2023/03/26 01:34:45;;;;;;;15.93;1.65;;;8.00;99.90;;;;;;5028088;28;19928;-88
2023/03/26 01:37:42;;;;;;;8.15;0.98;;;8.10;99.90;;;;;;5019386;28;20025;-89
2023/03/26 01:40:24;;;;;;;10.15;0.70;;;8.00;99.90;;;;;;5020049;28;20025;-87
2023/03/26 01:43:19;;;;;;;10.50;0.80;;;7.90;99.90;;;;;;5021201;28;20488;-88
2023/03/26 01:45:48;;;;;;;8.95;0.70;;;7.90;99.90;;;;;;5039325;28;20132;-87
2023/03/26 01:48:14;;;;;;;7.97;0.80;;;7.90;99.90;;;;;;5023959;28;20470;-89
2023/03/26 01:50:40;;;;;;;8.45;0.80;;;7.90;99.90;;;;;;5022309;28;20040;-88
2023/03/26 01:53:08;;;;;;;11.70;0.68;;;7.90;99.90;;;;;;5021447;28;20033;-88
2023/03/26 01:55:48;;;;;;;10.30;0.73;;;7.90;99.90;;;;;;5042604;28;20095;-86
2023/03/26 01:58:28;;;;;;;7.03;0.70;;;8.00;99.90;;;;;;5038157;28;20021;-87
2023/03/26 02:01:29;;;;;;;7.40;0.70;;;8.00;99.90;;;;;;5038418;28;20488;-86
2023/03/26 02:04:13;;;;;;;4.68;0.50;;;8.00;99.90;;;;;;5050761;28;20390;-86
2023/03/26 02:06:46;;;;;;;6.28;0.70;;;8.00;99.90;;;;;;5018867;28;20029;-87
2023/03/26 02:09:18;;;;;;;8.68;0.70;;;8.00;99.90;;;;;;5032851;28;20175;-87
2023/03/26 02:11:45;;;;;;;9.25;1.00;;;8.00;99.90;;;;;;5008713;28;20056;-87
2023/03/26 02:14:13;;;;;;;10.30;1.23;;;8.10;99.90;;;;;;5009700;28;20029;-86
2023/03/26 02:16:39;;;;;;;9.13;1.23;;;8.10;99.90;;;;;;5020291;28;20144;-86
2023/03/26 02:19:08;;;;;;;6.68;1.00;;;8.10;99.90;;;;;;5033928;28;20124;-87
2023/03/26 02:21:34;;;;;;;9.35;0.77;;;8.00;99.90;;;;;;5009325;28;20367;-87
2023/03/26 02:24:03;;;;;;;10.68;1.00;;;8.10;99.90;;;;;;5020644;28;20025;-86
2023/03/26 02:26:33;;;;;;;9.23;1.30;;;8.00;99.90;;;;;;5022715;28;20394;-87
2023/03/26 02:29:13;;;;;;;6.57;0.80;;;8.00;99.90;;;;;;5043104;28;20119;-88
2023/03/26 02:31:42;;;;;;;10.43;1.80;;;8.00;99.90;;;;;;5043677;28;20481;-87
2023/03/26 02:34:07;;;;;;;8.75;1.90;;;8.00;99.90;;;;;;5032554;28;20434;-89
2023/03/26 02:36:36;;;;;;;6.75;1.10;;;8.00;99.90;;;;;;5043027;28;20035;-88
2023/03/26 02:39:03;;;;;;;9.38;1.20;;;8.00;99.90;;;;;;5043496;28;20923;-87
2023/03/26 02:41:33;;;;;;;8.65;1.48;;;8.00;99.90;;;;;;5044456;28;20469;-87
2023/03/26 02:44:04;;;;;;;9.52;1.88;;;8.00;99.90;;;;;;5042474;28;20506;-88
2023/03/26 02:46:52;;;;;;;;;;;7.90;99.90;;;;;;5049039;28;20175;-88
2023/03/26 02:49:36;;;;;;;6.07;1.13;;;8.00;99.90;;;;;;5057692;28;19953;-87
2023/03/26 02:52:05;;;;;;;11.18;1.83;;;8.00;99.90;;;;;;5060542;28;20132;-88
2023/03/26 02:54:33;;;;;;;8.02;1.55;;;8.00;99.90;;;;;;5044159;28;20032;-88
2023/03/26 02:57:19;;;;;;;8.45;1.80;;;8.00;99.90;;;;;;5059954;28;20048;-88
2023/03/26 03:00:07;;;;;;;12.32;2.00;;;8.00;99.90;;;;;;5068325;28;20040;-88
2023/03/26 03:02:37;;;;;;;10.05;1.85;;;7.90;99.90;;;;;;5063712;28;20040;-89
2023/03/26 03:05:25;;;;;;;8.80;2.38;;;7.90;99.90;;;;;;5028460;28;20033;-88
2023/03/26 03:07:58;;;;;;;11.88;2.78;;;7.90;99.90;;;;;;5049512;28;20056;-88
2023/03/26 03:10:27;;;;;;;7.65;1.52;;;7.90;99.90;;;;;;5048345;28;20067;-87
2023/03/26 03:13:13;;;;;;;10.70;1.60;;;7.90;99.90;;;;;;5052103;28;20090;-90
2023/03/26 03:15:39;;;;;;;10.90;2.30;;;7.90;99.90;;;;;;5031442;28;20032;-88
2023/03/26 03:18:05;;;;;;;10.75;2.47;;;7.90;99.90;;;;;;5058441;28;20025;-87
2023/03/26 03:20:33;;;;;;;9.70;1.95;;;7.90;99.90;;;;;;5062588;28;20028;-89
2023/03/26 03:23:00;;;;;;;7.10;0.88;;;7.90;99.90;;;;;;5060317;28;20085;-88
2023/03/26 03:25:26;;;;;;;10.20;1.85;;;7.90;99.90;;;;;;5050894;28;20116;-88
2023/03/26 03:27:52;;;;;;;10.10;1.27;;;7.90;99.90;;;;;;5051277;28;20508;-88
2023/03/26 03:30:19;;;;;;;10.85;1.20;;;7.90;99.90;;;;;;5047226;28;20028;-89
2023/03/26 03:32:45;;;;;;;11.57;1.50;;;7.90;99.90;;;;;;5054662;28;20099;-86
2023/03/26 03:35:12;;;;;;;8.23;1.77;;;7.90;99.90;;;;;;5045692;28;20070;-88
2023/03/26 03:37:40;;;;;;;8.10;1.27;;;7.90;99.90;;;;;;5046539;28;20123;-88
2023/03/26 03:40:09;;;;;;;12.10;1.58;;;7.90;99.90;;;;;;5051615;28;20509;-89
2023/03/26 03:42:36;;;;;;;7.95;1.10;;;7.90;99.90;;;;;;5058953;28;20029;-88
2023/03/26 03:45:05;;;;;;;10.88;1.50;;;7.90;99.90;;;;;;5039719;28;20024;-87
2023/03/26 03:47:51;;;;;;;7.03;0.98;;;7.90;99.90;;;;;;5061138;28;20477;-87
2023/03/26 03:50:24;;;;;;;7.82;1.27;;;7.90;99.90;;;;;;5046735;28;20025;-86
2023/03/26 03:53:05;;;;;;;6.60;1.17;;;7.90;99.90;;;;;;5062506;28;20048;-87
2023/03/26 03:55:31;;;;;;;10.43;1.40;;;8.00;99.90;;;;;;5032998;28;20116;-86
2023/03/26 03:57:57;;;;;;;8.07;1.10;;;7.90;99.90;;;;;;5049116;28;20464;-87
2023/03/26 04:00:24;;;;;;;7.72;0.90;;;7.90;99.90;;;;;;5049332;28;20069;-86
2023/03/26 04:03:08;;;;;;;5.15;0.63;;;8.00;99.90;;;;;;5050905;28;20040;-87
2023/03/26 04:05:35;;;;;;;10.05;0.80;;;7.90;99.90;;;;;;5030013;28;20021;-87
2023/03/26 04:08:01;;;;;;;5.28;1.02;;;7.90;99.90;;;;;;5034949;28;20029;-89
2023/03/26 04:10:44;;;;;;;6.63;0.75;;;7.90;99.90;;;;;;5062363;28;20102;-88
2023/03/26 04:13:36;;;;;;;9.85;0.75;;;7.90;99.90;;;;;;5052693;28;20037;-87
2023/03/26 04:16:16;;;;;;;7.10;0.90;;;8.00;99.90;;;;;;5041713;28;20025;-88
2023/03/26 04:18:44;;;;;;;8.15;0.90;;;8.00;99.90;;;;;;5033398;28;20037;-88
2023/03/26 04:21:14;;;;;;;12.48;1.10;;;8.00;99.90;;;;;;5049122;28;20044;-88
2023/03/26 04:23:41;;;;;;;6.55;0.90;;;8.00;99.90;;;;;;5044909;28;20033;-87
2023/03/26 04:26:41;;;;;;;5.18;0.60;;;8.00;99.90;;;;;;5061784;28;20037;-88
2023/03/26 04:29:15;;;;;;;6.05;0.70;;;8.00;99.90;;;;;;5030983;28;20025;-88
2023/03/26 04:31:41;;;;;;;;;;;8.00;99.90;;;;;;5049600;28;20029;-88
2023/03/26 04:34:18;;;;;;;7.63;0.90;;;7.90;99.90;;;;;;5063665;28;19924;-88
2023/03/26 04:36:55;;;;;;;5.65;1.17;;;8.00;99.90;;;;;;5043987;28;20056;-88
2023/03/26 04:39:28;;;;;;;4.93;0.80;;;8.00;99.90;;;;;;5041242;28;20041;-87
2023/03/26 04:42:13;;;;;;;9.30;0.70;;;8.00;99.90;;;;;;5060534;28;20108;-87
2023/03/26 04:44:51;;;;;;;5.88;0.60;;;8.00;99.90;;;;;;5033213;28;20028;-88
2023/03/26 04:47:17;;;;;;;8.18;0.65;;;7.90;99.90;;;;;;5056353;28;20025;-88
2023/03/26 04:49:46;;;;;;;5.35;0.50;;;8.00;99.90;;;;;;5033818;28;20033;-88
2023/03/26 04:52:14;;;;;;;10.00;0.60;;;8.00;99.90;;;;;;5029744;28;20465;-89
2023/03/26 04:54:58;;;;;;;7.13;0.55;;;7.90;99.90;;;;;;5065074;28;20059;-87
2023/03/26 04:57:36;;;;;;;3.55;0.57;;;8.00;99.90;;;;;;5059592;28;20021;-87
2023/03/26 05:00:13;;;;;;;7.22;0.80;;;7.90;99.90;;;;;;5041821;28;20121;-88
2023/03/26 05:02:40;;;;;;;6.70;0.60;;;7.90;99.90;;;;;;5035875;28;20079;-87
2023/03/26 05:05:07;;;;;;;7.53;0.70;;;8.00;99.90;;;;;;5047516;28;20035;-87
2023/03/26 05:07:34;;;;;;;7.57;0.73;;;8.00;99.90;;;;;;5047153;28;20093;-88
2023/03/26 05:10:02;;;;;;;7.63;0.43;;;8.00;99.90;;;;;;5063400;28;20021;-88
2023/03/26 05:12:36;;;;;;;7.28;0.60;;;8.00;99.90;;;;;;5055872;28;20037;-87
2023/03/26 05:15:08;;;;;;;8.32;0.45;;;8.00;99.90;;;;;;5042217;28;20028;-87
2023/03/26 05:17:47;;;;;;;8.48;0.60;;;8.00;99.90;;;;;;5029755;28;20088;-88
2023/03/26 05:20:28;;;;;;;7.18;0.50;;;8.00;99.90;;;;;;5070478;28;20056;-87
2023/03/26 05:22:54;;;;;;;6.32;0.70;;;8.00;99.90;;;;;;5027833;28;20511;-88
2023/03/26 05:25:33;;;;;;;6.28;0.50;;;8.00;99.90;;;;;;5057445;28;20020;-88
2023/03/26 05:28:01;;;;;;;10.70;0.52;;;7.90;99.90;;;;;;5010338;28;20038;-87
2023/03/26 05:30:35;;;;;;;9.25;0.52;;;8.00;99.90;;;;;;5007023;28;20064;-87
2023/03/26 05:33:03;;;;;;;5.80;0.80;;;7.90;99.90;;;;;;5008050;28;20111;-87
2023/03/26 05:35:38;;;;;;;6.03;0.57;;;7.90;99.90;;;;;;5022970;28;20026;-87
2023/03/26 05:38:06;;;;;;;7.35;0.43;;;7.90;99.90;;;;;;5008947;28;20028;-87
2023/03/26 05:40:32;;;;;;;6.72;0.52;;;7.90;99.90;;;;;;5008816;28;20031;-87
2023/03/26 05:43:01;;;;;;;6.25;0.50;;;8.00;99.90;;;;;;5021876;28;20030;-87
2023/03/26 05:45:33;;;;;;;6.32;1.08;;;8.00;99.90;;;;;;5009098;28;20368;-86
2023/03/26 05:48:07;;;;;;;6.60;0.40;;;8.00;99.90;;;;;;5008588;28;20030;-87
2023/03/26 05:50:33;;;;;;;7.93;0.68;;;7.90;99.90;;;;;;5007199;28;20030;-89
2023/03/26 05:52:59;;;;;;;5.70;0.50;;;7.90;99.90;;;;;;4992028;28;20034;-88
2023/03/26 05:55:56;;;;;;;6.65;0.77;;;7.90;99.90;;;;;;5006533;28;20029;-88
2023/03/26 05:58:41;;;;;;;7.07;0.40;;;8.00;99.90;;;;;;5006584;28;20121;-88
2023/03/26 06:01:25;;;;;;;7.93;0.40;;;7.90;99.90;;;;;;5009124;28;20045;-87
2023/03/26 06:04:12;;;;;;;6.85;0.65;;;8.00;99.90;;;;;;5019942;28;20093;-87
2023/03/26 06:06:43;;;;;;;5.68;0.50;;;8.00;99.90;;;;;;4992851;28;20069;-88
2023/03/26 06:09:12;;;;;;;3.58;0.50;;;8.00;99.90;;;;;;5003823;28;20080;-87
2023/03/26 06:11:38;;;;;;;5.88;0.50;;;8.00;99.90;;;;;;5009018;28;20040;-87
2023/03/26 06:14:05;;;;;;;6.65;0.50;;;8.00;99.90;;;;;;5001186;28;20673;-87
2023/03/26 06:16:32;;;;;;;5.00;0.50;;;8.00;99.90;;;;;;5006093;28;20070;-87
2023/03/26 06:19:10;;;;;;;7.10;0.40;;;8.00;99.90;;;;;;5021649;28;20038;-88
2023/03/26 06:21:56;;;;;;;6.45;0.63;;;8.00;99.90;;;;;;5007896;28;20026;-88
2023/03/26 06:24:28;;;;;;;5.38;0.52;;;8.00;99.90;;;;;;4992420;28;20092;-88
2023/03/26 06:27:05;;;;;;;7.28;0.60;;;8.00;99.90;;;;;;4992569;28;20132;-87
2023/03/26 06:29:49;;;;;;;5.10;0.63;;;8.00;99.90;;;;;;5007514;28;20535;-88
2023/03/26 06:32:31;;;;;;;3.58;0.32;;;8.00;99.90;;;;;;5002859;28;20042;-88
2023/03/26 06:35:05;;;;;;;5.32;0.75;;;8.00;99.90;;;;;;4991687;28;20114;-87
2023/03/26 06:37:31;;;;;;;5.57;0.40;;;8.00;99.90;;;;;;5004308;28;20030;-88
2023/03/26 06:40:00;;;;;;;8.70;0.68;;;8.00;99.90;;;;;;5006253;28;21959;-88
2023/03/26 06:42:56;;;;;;;5.20;0.40;;;8.00;99.90;;;;;;4986700;28;20026;-87
2023/03/26 06:45:33;;;;;;;4.32;0.40;;;8.00;99.90;;;;;;4970173;28;20026;-87
2023/03/26 06:48:18;;;;;;;5.53;0.70;;;8.00;99.90;;;;;;4987752;28;20041;-87
2023/03/26 06:51:01;;;;;;;3.67;0.35;;;8.00;99.90;;;;;;4973691;28;20479;-88
2023/03/26 06:53:49;;;;;;;6.10;0.70;;;8.00;99.90;;;;;;4973754;28;20136;-87
2023/03/26 06:56:35;;;;;;;6.22;0.50;;;8.00;99.90;;;;;;4973334;28;20125;-87
2023/03/26 06:59:19;;;;;;;3.38;0.32;;;8.10;99.90;;;;;;4971233;28;20066;-87
2023/03/26 07:02:17;;;;;;;7.15;0.60;;;8.10;99.90;;;;;;4986279;28;20038;-87
2023/03/26 07:05:01;;;;;;;5.22;0.70;;;8.10;99.90;;;;;;4972107;28;20025;-87
2023/03/26 07:07:46;;;;;;;5.57;0.52;;;8.20;99.90;;;;;;4972056;28;20034;-87
2023/03/26 07:10:18;;;;;;;5.32;0.50;;;8.20;99.90;;;;;;4971512;28;20039;-88
2023/03/26 07:12:55;;;;;;;3.30;0.50;;;8.20;99.90;;;;;;4971445;28;20042;-87
2023/03/26 07:15:40;;;;;;;6.40;0.40;;;8.30;99.90;;;;;;4972015;28;20060;-87
2023/03/26 07:18:20;;;;;;;5.60;0.50;;;8.30;99.90;;;;;;4955288;28;20026;-88
2023/03/26 07:20:47;;;;;;;5.15;0.60;;;8.30;99.90;;;;;;4991551;28;20026;-87
2023/03/26 07:23:19;;;;;;;9.67;0.83;;;8.30;99.90;;;;;;4987414;28;20030;-88
2023/03/26 07:26:46;;;;;;;4.38;0.40;;;8.30;99.90;;;;;;5011959;28;20042;-87
2023/03/26 07:29:19;;;;;;;;;;;8.30;99.90;;;;;;5024005;28;20038;-88
2023/03/26 07:32:51;;;;;;;4.18;0.40;;;8.30;99.90;;;;;;5007286;28;20586;-88
2023/03/26 07:35:47;;;;;;;8.65;1.23;;;8.30;99.90;;;;;;4973879;28;20042;-87
2023/03/26 07:38:44;;;;;;;4.60;0.45;;;8.30;99.90;;;;;;5007058;28;20045;-88
2023/03/26 07:41:39;;;;;;;5.18;0.50;;;8.40;99.90;;;;;;5006146;28;20470;-88
2023/03/26 07:44:44;;;;;;;5.60;0.40;;;8.30;99.90;;;;;;5009215;28;20044;-87
2023/03/26 07:47:48;;;;;;;6.88;0.43;;;8.40;99.90;;;;;;4976043;28;20038;-86
2023/03/26 07:50:21;;;;;;;2.67;0.38;;;8.40;99.90;;;;;;4956234;28;20075;-87
2023/03/26 07:53:05;;;;;;;7.75;0.82;;;8.40;99.90;;;;;;4975479;28;20133;-86
2023/03/26 07:56:10;;;;;;;6.93;0.50;;;8.40;99.90;;;;;;4973036;28;20041;-85
2023/03/26 07:58:50;;;;;;;6.13;0.40;;;8.50;99.90;;;;;;4972942;28;20046;-85
2023/03/26 08:02:26;;;;;;;5.35;0.40;;;8.50;99.90;;;;;;4942375;29;20039;-85
2023/03/26 08:05:46;;;;;;;6.97;0.50;;;8.50;99.90;;;;;;4845580;29;20040;-87
2023/03/26 08:08:50;;;;;;;4.72;0.40;;;8.50;99.90;;;;;;4826865;29;20046;-87
2023/03/26 08:11:39;;;;;;;4.20;0.40;;;8.50;99.90;;;;;;4813272;29;20041;-88
2023/03/26 08:14:29;;;;;;;5.00;0.65;;;8.60;99.90;;;;;;4823934;29;20107;-87
2023/03/26 08:17:09;;;;;;;4.03;0.40;;;8.50;99.90;;;;;;4829817;29;20049;-87
2023/03/26 08:19:45;;;;;;;4.55;0.30;;;8.40;99.90;;;;;;4828144;29;20046;-87
2023/03/26 08:22:25;;;;;;;3.58;0.30;;;8.40;99.90;;;;;;4813391;29;20481;-88
2023/03/26 08:25:09;;;;;;;5.10;0.50;;;8.30;99.90;;;;;;4804473;29;20046;-86
2023/03/26 08:27:46;;;;;;;7.50;1.02;;;8.30;99.90;;;;;;4809361;29;20146;-85
2023/03/26 08:30:20;;;;;;;5.35;0.52;;;8.30;99.90;;;;;;4806142;29;20045;-89
2023/03/26 08:32:56;;;;;;;4.28;0.88;;;8.30;99.90;;;;;;4829595;29;20157;-89
2023/03/26 08:35:23;;;;;;;4.30;0.50;;;8.20;99.90;;;;;;4850129;29;20671;-87
2023/03/26 08:37:48;;;;;;;5.25;0.43;;;8.30;99.90;;;;;;4851105;29;20450;-86
2023/03/26 08:40:32;;;;;;;3.47;0.30;;;8.20;99.90;;;;;;4869431;29;20049;-89
2023/03/26 08:43:10;;;;;;;5.20;0.50;;;8.10;99.90;;;;;;4999069;28;20042;-86
2023/03/26 08:46:00;;;;;;;5.78;0.40;;;8.20;99.90;;;;;;5007281;28;20017;-85
2023/03/26 08:48:36;;;;;;;4.35;0.65;;;8.10;99.90;;;;;;4991058;28;20026;-90
2023/03/26 08:51:16;;;;;;;5.47;0.65;;;8.20;99.90;;;;;;5008586;28;20034;-87
2023/03/26 08:53:51;;;;;;;3.00;0.50;;;8.30;99.90;;;;;;5009060;28;20124;-87
2023/03/26 08:56:42;;;;;;;4.60;0.70;;;8.30;99.90;;;;;;5009071;28;20038;-85
2023/03/26 08:59:47;;;;;;;6.70;0.50;;;8.30;99.90;;;;;;5007358;28;20113;-85
2023/03/26 09:02:34;;;;;;;2.55;0.40;;;8.30;99.90;;;;;;5008685;28;20391;-84
2023/03/26 09:05:22;;;;;;;2.17;0.30;;;8.30;99.90;;;;;;5007848;28;20025;-88
2023/03/26 09:08:13;;;;;;;4.40;0.40;;;8.20;99.90;;;;;;4989832;28;20036;-85
2023/03/26 09:11:08;;;;;;;4.72;0.50;;;8.20;99.90;;;;;;5008538;28;20066;-90
2023/03/26 09:13:36;;;;;;;3.80;0.40;;;8.30;99.90;;;;;;4967941;28;20134;-90
2023/03/26 09:16:35;;;;;;;6.35;0.60;;;8.20;99.90;;;;;;4969493;28;20057;-85
2023/03/26 09:19:25;;;;;;;4.35;0.50;;;8.30;99.90;;;;;;4934378;28;20086;-92
2023/03/26 09:22:22;;;;;;;3.25;0.40;;;8.30;99.90;;;;;;4953930;28;20030;-92
2023/03/26 09:25:09;;;;;;;3.53;0.70;;;8.40;99.90;;;;;;4950383;28;20038;-91
2023/03/26 09:28:09;;;;;;;4.32;0.40;;;8.50;99.90;;;;;;4924380;28;20121;-87
2023/03/26 09:31:08;;;;;;;3.10;0.47;;;8.50;99.90;;;;;;4955251;28;20093;-85
2023/03/26 09:33:46;;;;;;;3.83;0.50;;;8.70;99.90;;;;;;4968989;28;20047;-86
2023/03/26 09:36:30;;;;;;;2.60;0.30;;;8.70;99.90;;;;;;4953093;28;20030;-87
2023/03/26 09:39:36;;;;;;;6.45;0.40;;;8.70;99.90;;;;;;4952397;28;20027;-89
2023/03/26 09:42:07;;;;;;;5.38;0.40;;;8.80;99.90;;;;;;4950686;28;20030;-84
2023/03/26 09:45:00;;;;;;;2.75;0.60;;;8.80;99.90;;;;;;4940757;28;20065;-85
2023/03/26 09:47:55;;;;;;;3.53;0.30;;;8.90;99.90;;;;;;4942300;28;20030;-83
2023/03/26 09:50:33;;;;;;;4.85;0.40;;;9.00;99.90;;;;;;4985666;28;20855;-86
2023/03/26 09:53:17;;;;;;;4.45;0.50;;;8.90;99.90;;;;;;5008143;28;20494;-84
2023/03/26 09:56:13;;;;;;;2.83;0.30;;;8.90;99.90;;;;;;5006072;28;20025;-89
2023/03/26 09:58:55;;;;;;;3.60;0.30;;;9.00;99.90;;;;;;5022513;28;20045;-85
2023/03/26 10:01:32;;;;;;;4.05;0.30;;;9.00;99.90;;;;;;5008209;28;20030;-88
2023/03/26 10:04:37;;;;;;;3.63;0.30;;;9.10;99.90;;;;;;4990717;28;20030;-87
2023/03/26 10:07:20;;;;;;;2.10;0.38;;;9.10;99.90;;;;;;4989721;28;20041;-83
2023/03/26 10:10:02;;;;;;;3.00;0.25;;;9.10;99.90;;;;;;5006785;28;20065;-84
2023/03/26 10:12:47;;;;;;;3.20;0.30;;;9.20;99.90;;;;;;5008722;28;20483;-86
2023/03/26 10:15:35;;;;;;;1.80;0.20;;;9.30;99.90;;;;;;5003504;28;20134;-83
2023/03/26 10:18:14;;;;;;;2.05;0.20;;;9.40;99.90;;;;;;5006124;28;20034;-87
2023/03/26 10:21:03;;;;;;;3.22;0.30;;;9.30;99.90;;;;;;5001008;28;20516;-83
2023/03/26 10:23:48;;;;;;;3.17;0.30;;;9.30;99.90;;;;;;4968310;28;20038;-83
2023/03/26 10:26:38;;;;;;;2.45;0.30;;;9.20;99.90;;;;;;4957093;28;20368;-85
2023/03/26 10:29:40;;;;;;;3.63;0.30;;;9.20;99.90;;;;;;4970510;28;20165;-84
2023/03/26 10:32:28;;;;;;;2.05;0.25;;;9.30;99.90;;;;;;4971455;28;20030;-84
2023/03/26 10:35:28;;;;;;;2.65;0.35;;;9.30;99.90;;;;;;4967065;28;20137;-83
2023/03/26 10:38:12;;;;;;;1.35;0.25;;;9.40;99.90;;;;;;4976353;28;20058;-84
2023/03/26 10:40:55;;;;;;;2.70;0.43;;;9.50;99.90;;;;;;4944065;28;20039;-84
2023/03/26 10:43:42;;;;;;;3.60;0.50;;;9.50;99.90;;;;;;4973794;28;20124;-84
2023/03/26 10:46:32;;;;;;;3.55;0.50;;;9.70;99.90;;;;;;4970019;28;20046;-83
2023/03/26 10:49:43;;;;;;;3.15;0.70;;;9.80;99.90;;;;;;4975046;28;20294;-83
2023/03/26 10:52:15;;;;;;;4.95;0.80;;;9.90;99.90;;;;;;4969419;28;20439;-84
2023/03/26 10:54:54;;;;;;;4.90;1.15;;;9.90;99.90;;;;;;4970808;28;20550;-84
2023/03/26 10:57:32;;;;;;;4.82;1.38;;;10.00;99.90;;;;;;4955777;28;20027;-84
2023/03/26 11:00:13;;;;;;;4.65;1.73;;;10.10;99.90;;;;;;4966002;28;20124;-82
2023/03/26 11:03:07;;;;;;;5.85;1.70;;;10.10;99.90;;;;;;5002686;28;20034;-84
2023/03/26 11:05:57;;;;;;;3.33;1.80;;;10.10;99.90;;;;;;5010834;28;20407;-84
2023/03/26 11:08:57;;;;;;;5.10;1.63;;;10.00;99.90;;;;;;5006385;28;20054;-85
2023/03/26 11:11:30;;;;;;;4.35;1.55;;;10.00;99.90;;;;;;5020395;28;20033;-82
2023/03/26 11:14:19;;;;;;;5.03;1.30;;;10.10;99.90;;;;;;5005109;28;20041;-83
2023/03/26 11:17:14;;;;;;;3.92;1.00;;;10.00;99.90;;;;;;5021592;28;20040;-80
2023/03/26 11:20:08;;;;;;;4.13;1.42;;;9.90;99.90;;;;;;5026888;28;20116;-83
2023/03/26 11:22:36;;;;;;;3.92;1.60;;;10.00;99.90;;;;;;5011662;28;20037;-83
2023/03/26 11:25:21;;;;;;;4.63;1.55;;;9.90;99.90;;;;;;4994368;28;20026;-83
2023/03/26 11:28:16;;;;;;;5.15;1.05;;;9.90;99.90;;;;;;4998015;28;20595;-85
2023/03/26 11:30:52;;;;;;;8.13;2.03;;;9.80;99.90;;;;;;5013690;28;20038;-83
2023/03/26 11:33:23;;;;;;;8.13;2.15;;;9.60;99.90;;;;;;5029520;28;20085;-84
2023/03/26 11:35:51;;;;;;;6.13;2.45;;;9.40;99.90;;;;;;5029235;28;20063;-85
2023/03/26 11:38:36;;;;;;;4.45;2.20;;;9.20;99.90;;;;;;5012647;28;20026;-84
2023/03/26 11:41:10;;;;;;;4.70;2.08;;;9.20;99.90;;;;;;5030885;28;20450;-84
2023/03/26 11:44:07;;;;;;;4.88;1.98;;;9.10;99.90;;;;;;4959028;28;20032;-84
2023/03/26 11:46:37;;;;;;;5.75;1.80;;;9.10;99.90;;;;;;4937694;28;20031;-83
2023/03/26 11:49:09;;;;;;;4.18;1.63;;;9.00;99.90;;;;;;4934903;29;20085;-83
2023/03/26 11:51:37;;;;;;;3.50;1.52;;;8.90;99.90;;;;;;4960468;28;20023;-82
2023/03/26 11:54:06;;;;;;;4.05;1.50;;;8.80;99.90;;;;;;4951983;28;20043;-83
2023/03/26 11:56:52;;;;;;;4.63;1.33;;;8.90;99.90;;;;;;4952908;28;20031;-83
2023/03/26 11:59:34;;;;;;;6.88;2.05;;;8.80;99.90;;;;;;4933801;29;20135;-84
2023/03/26 12:02:11;;;;;;;8.00;2.38;;;8.80;99.90;;;;;;4917618;29;20035;-84
2023/03/26 12:04:39;;;;;;;4.57;2.08;;;8.70;99.90;;;;;;4936504;29;20035;-83
2023/03/26 12:07:16;;;;;;;5.63;2.28;;;8.80;99.90;;;;;;4948843;29;20086;-83
2023/03/26 12:09:51;;;;;;;5.45;2.05;;;8.80;99.90;;;;;;4951454;28;20055;-83
2023/03/26 12:12:18;;;;;;;4.32;1.70;;;8.80;99.90;;;;;;4949929;28;20038;-83
2023/03/26 12:14:44;;;;;;;6.25;2.72;;;8.80;99.90;;;;;;4933745;28;20131;-85
2023/03/26 12:17:36;;;;;;;5.22;2.35;;;8.90;99.90;;;;;;4950621;28;20051;-85
2023/03/26 12:20:21;;;;;;;5.20;2.10;;;8.90;99.90;;;;;;4951468;28;20043;-87
2023/03/26 12:22:47;;;;;;;4.97;1.42;;;8.90;99.90;;;;;;4993351;28;20041;-84
2023/03/26 12:25:22;;;;;;;4.13;1.55;;;8.90;99.90;;;;;;5043226;28;20022;-84
2023/03/26 12:28:01;;;;;;;4.78;1.55;;;8.80;99.90;;;;;;5008897;28;20087;-84
2023/03/26 12:30:40;;;;;;;3.67;1.25;;;8.90;99.90;;;;;;5025154;28;20038;-84
2023/03/26 12:33:33;;;;;;;3.78;0.90;;;9.00;99.90;;;;;;5011447;28;20526;-84
2023/03/26 12:36:15;;;;;;;6.07;1.52;;;9.00;99.90;;;;;;5002890;28;20022;-84
2023/03/26 12:38:41;;;;;;;6.18;1.60;;;9.10;99.90;;;;;;5011129;28;20030;-86
2023/03/26 12:41:15;;;;;;;4.47;1.40;;;9.10;99.90;;;;;;5011343;28;20080;-85
2023/03/26 12:43:52;;;;;;;5.82;1.40;;;9.20;99.90;;;;;;5007149;28;20058;-84
2023/03/26 12:46:30;;;;;;;3.78;1.35;;;9.10;99.90;;;;;;5025879;28;20022;-84
2023/03/26 12:49:05;;;;;;;7.13;2.42;;;9.00;99.90;;;;;;5005785;28;20105;-85
2023/03/26 12:51:48;;;;;;;6.05;1.90;;;8.80;99.90;;;;;;5006956;28;20049;-85
2023/03/26 12:54:43;;;;;;;5.00;1.67;;;8.80;99.90;;;;;;5011157;28;20034;-85
2023/03/26 12:57:23;;;;;;;4.43;1.63;;;8.70;99.90;;;;;;4993762;28;20032;-85
2023/03/26 13:00:12;;;;;;;9.02;2.03;;;8.60;99.90;;;;;;5026296;28;20113;-85
2023/03/26 13:02:57;;;;;;;6.00;1.35;;;8.60;99.90;;;;;;5006551;28;20029;-86
2023/03/26 13:05:53;;;;;;;5.05;1.75;;;8.60;99.90;;;;;;5009430;28;20121;-85
2023/03/26 13:08:46;;;;;;;4.53;1.67;;;8.70;99.90;;;;;;5008756;28;20029;-86
2023/03/26 13:11:26;;;;;;;4.22;0.90;;;8.70;99.90;;;;;;5025282;28;20044;-87
2023/03/26 13:14:18;;;;;;;5.68;0.85;;;8.60;99.90;;;;;;5024495;28;20046;-84
2023/03/26 13:17:08;;;;;;;4.50;0.90;;;8.60;99.90;;;;;;4959199;28;20038;-86
2023/03/26 13:20:13;;;;;;;4.55;0.93;;;8.60;99.90;;;;;;4984963;28;20533;-85
2023/03/26 13:23:08;;;;;;;4.38;0.80;;;8.70;99.90;;;;;;4990261;28;20479;-85
2023/03/26 13:25:45;;;;;;;3.08;0.50;;;8.70;99.90;;;;;;4995443;28;20456;-86
2023/03/26 13:28:27;;;;;;;5.63;0.68;;;8.60;99.90;;;;;;4999723;28;20069;-86
2023/03/26 13:31:17;;;;;;;8.93;1.20;;;8.50;99.90;;;;;;5005373;28;20133;-86
2023/03/26 13:33:55;;;;;;;4.78;0.80;;;8.40;99.90;;;;;;4994462;28;20046;-86
2023/03/26 13:36:33;;;;;;;4.47;0.60;;;8.40;99.90;;;;;;5011330;28;21244;-90
2023/03/26 13:39:15;;;;;;;5.43;0.90;;;8.40;99.90;;;;;;4983091;28;20044;-85
2023/03/26 13:42:09;;;;;;;9.80;1.20;;;8.40;99.90;;;;;;4995292;28;20037;-85
2023/03/26 13:44:51;;;;;;;3.92;0.90;;;8.30;99.90;;;;;;4993121;28;20395;-85
2023/03/26 13:47:32;;;;;;;4.53;0.60;;;8.20;99.90;;;;;;5000682;28;20053;-92
2023/03/26 13:50:25;;;;;;;4.43;0.50;;;8.30;99.90;;;;;;4995757;28;20030;-91
2023/03/26 13:53:21;;;;;;;6.93;0.60;;;8.30;99.90;;;;;;4994520;28;20057;-86
2023/03/26 13:55:56;;;;;;;3.38;0.40;;;8.30;99.90;;;;;;4973461;28;20911;-85
2023/03/26 13:58:37;;;;;;;6.53;0.60;;;8.30;99.90;;;;;;4997089;28;20033;-90